sensor_id;sensor_type;location;lat;lon;timestamp;P1;durP1;ratioP1;P2;durP2;ratioP2
69573;SDS011;62840;52.366;5.980;2023-08-21T00:01:47;4.07;;;1.80;;
69573;SDS011;62840;52.366;5.980;2023-08-21T00:04:13;6.40;;;1.70;;
69573;SDS011;62840;52.366;5.980;2023-08-21T00:06:38;4.00;;;1.70;;
69573;SDS011;62840;52.366;5.980;2023-08-21T00:09:07;3.85;;;1.67;;
69573;SDS011;62840;52.366;5.980;2023-08-21T00:11:32;5.38;;;1.80;;
69573;SDS011;62840;52.366;5.980;2023-08-21T00:13:58;4.17;;;1.60;;
69573;SDS011;62840;52.366;5.980;2023-08-21T00:16:24;4.32;;;1.70;;
69573;SDS011;62840;52.366;5.980;2023-08-21T00:18:50;4.63;;;1.70;;
69573;SDS011;62840;52.366;5.980;2023-08-21T00:21:15;5.03;;;1.83;;
69573;SDS011;62840;52.366;5.980;2023-08-21T00:23:41;4.83;;;1.93;;
69573;SDS011;62840;52.366;5.980;2023-08-21T00:26:09;5.47;;;1.85;;
69573;SDS011;62840;52.366;5.980;2023-08-21T00:28:35;4.05;;;1.90;;
69573;SDS011;62840;52.366;5.980;2023-08-21T00:31:01;5.40;;;1.70;;
69573;SDS011;62840;52.366;5.980;2023-08-21T00:33:27;3.60;;;1.40;;
69573;SDS011;62840;52.366;5.980;2023-08-21T00:35:53;5.33;;;1.73;;
69573;SDS011;62840;52.366;5.980;2023-08-21T00:38:19;3.40;;;1.70;;
69573;SDS011;62840;52.366;5.980;2023-08-21T00:40:44;4.07;;;1.80;;
69573;SDS011;62840;52.366;5.980;2023-08-21T00:43:13;4.78;;;1.70;;
69573;SDS011;62840;52.366;5.980;2023-08-21T00:45:39;6.03;;;1.95;;
69573;SDS011;62840;52.366;5.980;2023-08-21T00:48:08;6.90;;;2.10;;
69573;SDS011;62840;52.366;5.980;2023-08-21T00:50:35;3.70;;;1.55;;
69573;SDS011;62840;52.366;5.980;2023-08-21T00:53:01;4.60;;;1.60;;
69573;SDS011;62840;52.366;5.980;2023-08-21T00:55:27;3.40;;;1.83;;
69573;SDS011;62840;52.366;5.980;2023-08-21T00:57:53;3.30;;;1.40;;
69573;SDS011;62840;52.366;5.980;2023-08-21T01:00:23;4.90;;;1.70;;
69573;SDS011;62840;52.366;5.980;2023-08-21T01:02:55;5.57;;;1.70;;
69573;SDS011;62840;52.366;5.980;2023-08-21T01:05:21;4.35;;;1.80;;
69573;SDS011;62840;52.366;5.980;2023-08-21T01:07:49;5.97;;;1.90;;
69573;SDS011;62840;52.366;5.980;2023-08-21T01:10:26;5.65;;;1.70;;
69573;SDS011;62840;52.366;5.980;2023-08-21T01:13:13;4.53;;;1.50;;
69573;SDS011;62840;52.366;5.980;2023-08-21T01:15:54;3.88;;;1.60;;
69573;SDS011;62840;52.366;5.980;2023-08-21T01:18:22;5.47;;;1.98;;
69573;SDS011;62840;52.366;5.980;2023-08-21T01:20:50;4.40;;;1.60;;
69573;SDS011;62840;52.366;5.980;2023-08-21T01:23:32;4.45;;;1.60;;
69573;SDS011;62840;52.366;5.980;2023-08-21T01:25:59;5.70;;;1.83;;
69573;SDS011;62840;52.366;5.980;2023-08-21T01:28:25;5.10;;;1.77;;
69573;SDS011;62840;52.366;5.980;2023-08-21T01:30:54;5.25;;;2.00;;
69573;SDS011;62840;52.366;5.980;2023-08-21T01:33:30;3.90;;;1.58;;
69573;SDS011;62840;52.366;5.980;2023-08-21T01:36:04;5.40;;;1.80;;
69573;SDS011;62840;52.366;5.980;2023-08-21T01:38:32;3.77;;;1.67;;
69573;SDS011;62840;52.366;5.980;2023-08-21T01:40:59;5.13;;;1.48;;
69573;SDS011;62840;52.366;5.980;2023-08-21T01:43:24;4.13;;;1.80;;
69573;SDS011;62840;52.366;5.980;2023-08-21T01:45:50;4.30;;;1.77;;
69573;SDS011;62840;52.366;5.980;2023-08-21T01:48:16;5.07;;;1.70;;
69573;SDS011;62840;52.366;5.980;2023-08-21T01:50:41;3.73;;;1.70;;
69573;SDS011;62840;52.366;5.980;2023-08-21T01:53:07;5.30;;;1.30;;
69573;SDS011;62840;52.366;5.980;2023-08-21T01:55:36;4.60;;;1.90;;
69573;SDS011;62840;52.366;5.980;2023-08-21T01:58:01;3.92;;;1.40;;
69573;SDS011;62840;52.366;5.980;2023-08-21T02:00:27;4.97;;;1.80;;
69573;SDS011;62840;52.366;5.980;2023-08-21T02:02:53;5.10;;;1.50;;
69573;SDS011;62840;52.366;5.980;2023-08-21T02:05:19;4.55;;;1.50;;
69573;SDS011;62840;52.366;5.980;2023-08-21T02:07:44;3.83;;;1.70;;
69573;SDS011;62840;52.366;5.980;2023-08-21T02:10:10;4.20;;;1.40;;
69573;SDS011;62840;52.366;5.980;2023-08-21T02:12:38;4.80;;;1.73;;
69573;SDS011;62840;52.366;5.980;2023-08-21T02:15:05;3.58;;;1.60;;
69573;SDS011;62840;52.366;5.980;2023-08-21T02:17:32;4.15;;;1.50;;
69573;SDS011;62840;52.366;5.980;2023-08-21T02:19:58;5.67;;;1.40;;
69573;SDS011;62840;52.366;5.980;2023-08-21T02:22:24;3.83;;;1.67;;
69573;SDS011;62840;52.366;5.980;2023-08-21T02:24:49;5.40;;;1.40;;
69573;SDS011;62840;52.366;5.980;2023-08-21T02:27:15;3.85;;;1.48;;
69573;SDS011;62840;52.366;5.980;2023-08-21T02:29:43;4.45;;;1.63;;
69573;SDS011;62840;52.366;5.980;2023-08-21T02:32:09;4.75;;;1.50;;
69573;SDS011;62840;52.366;5.980;2023-08-21T02:34:35;3.97;;;1.42;;
69573;SDS011;62840;52.366;5.980;2023-08-21T02:37:01;4.22;;;1.40;;
69573;SDS011;62840;52.366;5.980;2023-08-21T02:39:27;4.30;;;1.27;;
69573;SDS011;62840;52.366;5.980;2023-08-21T02:41:53;4.20;;;1.25;;
69573;SDS011;62840;52.366;5.980;2023-08-21T02:44:19;5.13;;;1.73;;
69573;SDS011;62840;52.366;5.980;2023-08-21T02:46:47;5.72;;;1.67;;
69573;SDS011;62840;52.366;5.980;2023-08-21T02:49:13;5.18;;;1.73;;
69573;SDS011;62840;52.366;5.980;2023-08-21T02:51:39;3.70;;;1.23;;
69573;SDS011;62840;52.366;5.980;2023-08-21T02:54:05;5.68;;;1.48;;
69573;SDS011;62840;52.366;5.980;2023-08-21T02:56:31;4.63;;;1.70;;
69573;SDS011;62840;52.366;5.980;2023-08-21T02:58:57;4.15;;;1.40;;
69573;SDS011;62840;52.366;5.980;2023-08-21T03:01:22;4.85;;;1.60;;
69573;SDS011;62840;52.366;5.980;2023-08-21T03:03:51;5.10;;;1.30;;
69573;SDS011;62840;52.366;5.980;2023-08-21T03:06:16;3.95;;;1.30;;
69573;SDS011;62840;52.366;5.980;2023-08-21T03:08:42;3.83;;;1.42;;
69573;SDS011;62840;52.366;5.980;2023-08-21T03:11:08;5.40;;;1.23;;
69573;SDS011;62840;52.366;5.980;2023-08-21T03:13:33;4.78;;;1.60;;
69573;SDS011;62840;52.366;5.980;2023-08-21T03:15:59;3.67;;;1.23;;
69573;SDS011;62840;52.366;5.980;2023-08-21T03:18:25;3.03;;;1.15;;
69573;SDS011;62840;52.366;5.980;2023-08-21T03:20:59;7.00;;;1.30;;
69573;SDS011;62840;52.366;5.980;2023-08-21T03:23:24;6.53;;;1.45;;
69573;SDS011;62840;52.366;5.980;2023-08-21T03:25:51;6.90;;;1.40;;
69573;SDS011;62840;52.366;5.980;2023-08-21T03:28:17;3.95;;;1.30;;
69573;SDS011;62840;52.366;5.980;2023-08-21T03:30:43;3.10;;;1.20;;
69573;SDS011;62840;52.366;5.980;2023-08-21T03:33:09;4.05;;;1.48;;
69573;SDS011;62840;52.366;5.980;2023-08-21T03:35:34;3.45;;;1.30;;
69573;SDS011;62840;52.366;5.980;2023-08-21T03:38:03;3.70;;;1.40;;
69573;SDS011;62840;52.366;5.980;2023-08-21T03:40:28;4.15;;;1.25;;
69573;SDS011;62840;52.366;5.980;2023-08-21T03:42:54;3.30;;;1.25;;
69573;SDS011;62840;52.366;5.980;2023-08-21T03:45:20;4.20;;;1.27;;
69573;SDS011;62840;52.366;5.980;2023-08-21T03:47:46;5.75;;;2.15;;
69573;SDS011;62840;52.366;5.980;2023-08-21T03:50:11;4.20;;;1.20;;
69573;SDS011;62840;52.366;5.980;2023-08-21T03:52:37;3.15;;;1.38;;
69573;SDS011;62840;52.366;5.980;2023-08-21T03:55:06;4.85;;;1.40;;
69573;SDS011;62840;52.366;5.980;2023-08-21T03:57:32;3.97;;;1.35;;
69573;SDS011;62840;52.366;5.980;2023-08-21T03:59:58;4.30;;;1.67;;
69573;SDS011;62840;52.366;5.980;2023-08-21T04:02:24;4.30;;;1.43;;
69573;SDS011;62840;52.366;5.980;2023-08-21T04:04:49;3.80;;;1.40;;
69573;SDS011;62840;52.366;5.980;2023-08-21T04:07:15;3.40;;;1.60;;
69573;SDS011;62840;52.366;5.980;2023-08-21T04:09:41;5.38;;;1.40;;
69573;SDS011;62840;52.366;5.980;2023-08-21T04:12:09;4.63;;;1.30;;
69573;SDS011;62840;52.366;5.980;2023-08-21T04:14:35;3.20;;;1.55;;
69573;SDS011;62840;52.366;5.980;2023-08-21T04:17:01;4.18;;;1.75;;
69573;SDS011;62840;52.366;5.980;2023-08-21T04:19:27;4.47;;;1.20;;
69573;SDS011;62840;52.366;5.980;2023-08-21T04:21:52;5.07;;;1.27;;
69573;SDS011;62840;52.366;5.980;2023-08-21T04:24:18;4.33;;;1.30;;
69573;SDS011;62840;52.366;5.980;2023-08-21T04:26:44;3.25;;;1.15;;
69573;SDS011;62840;52.366;5.980;2023-08-21T04:29:12;4.23;;;1.50;;
69573;SDS011;62840;52.366;5.980;2023-08-21T04:31:38;3.53;;;1.13;;
69573;SDS011;62840;52.366;5.980;2023-08-21T04:34:04;4.75;;;1.30;;
69573;SDS011;62840;52.366;5.980;2023-08-21T04:36:29;5.53;;;1.50;;
69573;SDS011;62840;52.366;5.980;2023-08-21T04:38:55;4.32;;;1.70;;
69573;SDS011;62840;52.366;5.980;2023-08-21T04:41:21;3.67;;;1.40;;
69573;SDS011;62840;52.366;5.980;2023-08-21T04:43:46;3.70;;;1.60;;
69573;SDS011;62840;52.366;5.980;2023-08-21T04:46:15;3.37;;;1.50;;
69573;SDS011;62840;52.366;5.980;2023-08-21T04:48:40;4.10;;;1.42;;
69573;SDS011;62840;52.366;5.980;2023-08-21T04:51:06;3.95;;;1.15;;
69573;SDS011;62840;52.366;5.980;2023-08-21T04:53:32;4.22;;;1.50;;
69573;SDS011;62840;52.366;5.980;2023-08-21T04:55:58;4.00;;;1.30;;
69573;SDS011;62840;52.366;5.980;2023-08-21T04:58:24;5.53;;;1.25;;
69573;SDS011;62840;52.366;5.980;2023-08-21T05:00:49;3.78;;;1.35;;
69573;SDS011;62840;52.366;5.980;2023-08-21T05:03:18;3.57;;;1.50;;
69573;SDS011;62840;52.366;5.980;2023-08-21T05:05:51;4.25;;;1.50;;
69573;SDS011;62840;52.366;5.980;2023-08-21T05:08:17;4.93;;;1.40;;
69573;SDS011;62840;52.366;5.980;2023-08-21T05:10:43;3.60;;;1.47;;
69573;SDS011;62840;52.366;5.980;2023-08-21T05:13:09;10.07;;;1.52;;
69573;SDS011;62840;52.366;5.980;2023-08-21T05:15:34;3.07;;;1.37;;
69573;SDS011;62840;52.366;5.980;2023-08-21T05:18:00;4.80;;;1.35;;
69573;SDS011;62840;52.366;5.980;2023-08-21T05:20:29;4.20;;;1.30;;
69573;SDS011;62840;52.366;5.980;2023-08-21T05:22:54;3.60;;;1.10;;
69573;SDS011;62840;52.366;5.980;2023-08-21T05:25:20;4.63;;;1.52;;
69573;SDS011;62840;52.366;5.980;2023-08-21T05:27:46;4.47;;;1.60;;
69573;SDS011;62840;52.366;5.980;2023-08-21T05:30:12;4.88;;;1.50;;
69573;SDS011;62840;52.366;5.980;2023-08-21T05:32:38;4.72;;;1.67;;
69573;SDS011;62840;52.366;5.980;2023-08-21T05:35:04;4.80;;;1.30;;
69573;SDS011;62840;52.366;5.980;2023-08-21T05:37:33;3.10;;;1.17;;
69573;SDS011;62840;52.366;5.980;2023-08-21T05:39:59;4.30;;;1.40;;
69573;SDS011;62840;52.366;5.980;2023-08-21T05:42:24;3.07;;;1.20;;
69573;SDS011;62840;52.366;5.980;2023-08-21T05:44:50;3.55;;;1.70;;
69573;SDS011;62840;52.366;5.980;2023-08-21T05:47:16;4.13;;;1.50;;
69573;SDS011;62840;52.366;5.980;2023-08-21T05:49:42;4.00;;;1.30;;
69573;SDS011;62840;52.366;5.980;2023-08-21T05:52:08;3.90;;;1.20;;
69573;SDS011;62840;52.366;5.980;2023-08-21T05:54:37;5.95;;;1.33;;
69573;SDS011;62840;52.366;5.980;2023-08-21T05:57:03;3.33;;;1.45;;
69573;SDS011;62840;52.366;5.980;2023-08-21T05:59:30;4.43;;;1.38;;
69573;SDS011;62840;52.366;5.980;2023-08-21T06:01:57;3.63;;;1.50;;
69573;SDS011;62840;52.366;5.980;2023-08-21T06:04:24;5.05;;;1.10;;
69573;SDS011;62840;52.366;5.980;2023-08-21T06:06:50;3.10;;;1.30;;
69573;SDS011;62840;52.366;5.980;2023-08-21T06:09:15;3.67;;;1.15;;
69573;SDS011;62840;52.366;5.980;2023-08-21T06:11:44;3.90;;;1.20;;
69573;SDS011;62840;52.366;5.980;2023-08-21T06:14:09;5.10;;;1.30;;
69573;SDS011;62840;52.366;5.980;2023-08-21T06:16:35;4.37;;;1.30;;
69573;SDS011;62840;52.366;5.980;2023-08-21T06:19:01;3.33;;;1.25;;
69573;SDS011;62840;52.366;5.980;2023-08-21T06:21:27;3.70;;;1.60;;
69573;SDS011;62840;52.366;5.980;2023-08-21T06:23:52;2.95;;;1.10;;
69573;SDS011;62840;52.366;5.980;2023-08-21T06:26:18;4.50;;;1.57;;
69573;SDS011;62840;52.366;5.980;2023-08-21T06:28:46;5.57;;;1.23;;
69573;SDS011;62840;52.366;5.980;2023-08-21T06:31:16;3.60;;;1.35;;
69573;SDS011;62840;52.366;5.980;2023-08-21T06:33:42;3.97;;;1.40;;
69573;SDS011;62840;52.366;5.980;2023-08-21T06:36:07;4.45;;;1.80;;
69573;SDS011;62840;52.366;5.980;2023-08-21T06:38:33;4.63;;;1.67;;
69573;SDS011;62840;52.366;5.980;2023-08-21T06:40:59;8.32;;;1.33;;
69573;SDS011;62840;52.366;5.980;2023-08-21T06:43:24;4.50;;;1.60;;
69573;SDS011;62840;52.366;5.980;2023-08-21T06:45:53;4.18;;;1.25;;
69573;SDS011;62840;52.366;5.980;2023-08-21T06:48:19;5.10;;;1.30;;
69573;SDS011;62840;52.366;5.980;2023-08-21T06:50:44;3.87;;;1.50;;
69573;SDS011;62840;52.366;5.980;2023-08-21T06:53:10;3.75;;;1.50;;
69573;SDS011;62840;52.366;5.980;2023-08-21T06:55:36;3.50;;;1.60;;
69573;SDS011;62840;52.366;5.980;2023-08-21T06:58:02;4.80;;;1.98;;
69573;SDS011;62840;52.366;5.980;2023-08-21T07:00:28;3.63;;;1.30;;
69573;SDS011;62840;52.366;5.980;2023-08-21T07:02:56;4.73;;;1.23;;
69573;SDS011;62840;52.366;5.980;2023-08-21T07:05:22;4.88;;;1.50;;
69573;SDS011;62840;52.366;5.980;2023-08-21T07:07:48;3.37;;;1.40;;
69573;SDS011;62840;52.366;5.980;2023-08-21T07:10:13;4.00;;;1.27;;
69573;SDS011;62840;52.366;5.980;2023-08-21T07:12:39;4.28;;;1.60;;
69573;SDS011;62840;52.366;5.980;2023-08-21T07:15:05;3.50;;;1.17;;
69573;SDS011;62840;52.366;5.980;2023-08-21T07:17:33;3.97;;;1.60;;
69573;SDS011;62840;52.366;5.980;2023-08-21T07:20:01;6.53;;;1.47;;
69573;SDS011;62840;52.366;5.980;2023-08-21T07:22:28;5.60;;;1.98;;
69573;SDS011;62840;52.366;5.980;2023-08-21T07:24:53;5.32;;;1.60;;
69573;SDS011;62840;52.366;5.980;2023-08-21T07:27:19;7.32;;;1.80;;
69573;SDS011;62840;52.366;5.980;2023-08-21T07:29:45;6.63;;;1.75;;
69573;SDS011;62840;52.366;5.980;2023-08-21T07:32:11;6.22;;;1.98;;
69573;SDS011;62840;52.366;5.980;2023-08-21T07:34:36;4.80;;;1.70;;
69573;SDS011;62840;52.366;5.980;2023-08-21T07:37:07;6.90;;;1.75;;
69573;SDS011;62840;52.366;5.980;2023-08-21T07:39:33;3.73;;;1.50;;
69573;SDS011;62840;52.366;5.980;2023-08-21T07:41:58;5.15;;;1.70;;
69573;SDS011;62840;52.366;5.980;2023-08-21T07:44:24;7.93;;;1.90;;
69573;SDS011;62840;52.366;5.980;2023-08-21T07:46:50;5.53;;;1.80;;
69573;SDS011;62840;52.366;5.980;2023-08-21T07:49:16;5.22;;;1.70;;
69573;SDS011;62840;52.366;5.980;2023-08-21T07:51:41;5.53;;;1.90;;
69573;SDS011;62840;52.366;5.980;2023-08-21T07:54:10;4.78;;;1.80;;
69573;SDS011;62840;52.366;5.980;2023-08-21T07:56:36;8.00;;;1.77;;
69573;SDS011;62840;52.366;5.980;2023-08-21T07:59:02;11.38;;;2.20;;
69573;SDS011;62840;52.366;5.980;2023-08-21T08:01:28;7.18;;;1.88;;
69573;SDS011;62840;52.366;5.980;2023-08-21T08:03:54;7.67;;;2.50;;
69573;SDS011;62840;52.366;5.980;2023-08-21T08:06:19;6.90;;;2.00;;
69573;SDS011;62840;52.366;5.980;2023-08-21T08:08:45;7.20;;;2.30;;
69573;SDS011;62840;52.366;5.980;2023-08-21T08:11:13;7.57;;;1.92;;
69573;SDS011;62840;52.366;5.980;2023-08-21T08:13:39;8.82;;;2.30;;
69573;SDS011;62840;52.366;5.980;2023-08-21T08:16:05;8.53;;;2.53;;
69573;SDS011;62840;52.366;5.980;2023-08-21T08:18:31;9.13;;;2.60;;
69573;SDS011;62840;52.366;5.980;2023-08-21T08:20:56;5.90;;;1.50;;
69573;SDS011;62840;52.366;5.980;2023-08-21T08:23:22;9.20;;;1.90;;
69573;SDS011;62840;52.366;5.980;2023-08-21T08:25:48;6.13;;;1.93;;
69573;SDS011;62840;52.366;5.980;2023-08-21T08:28:17;5.45;;;2.22;;
69573;SDS011;62840;52.366;5.980;2023-08-21T08:30:43;6.05;;;1.92;;
69573;SDS011;62840;52.366;5.980;2023-08-21T08:33:09;7.20;;;2.30;;
69573;SDS011;62840;52.366;5.980;2023-08-21T08:35:34;6.38;;;2.33;;
69573;SDS011;62840;52.366;5.980;2023-08-21T08:38:00;5.20;;;1.80;;
69573;SDS011;62840;52.366;5.980;2023-08-21T08:40:26;7.03;;;2.10;;
69573;SDS011;62840;52.366;5.980;2023-08-21T08:42:52;6.73;;;1.90;;
69573;SDS011;62840;52.366;5.980;2023-08-21T08:45:23;6.88;;;2.03;;
69573;SDS011;62840;52.366;5.980;2023-08-21T08:47:54;9.85;;;2.60;;
69573;SDS011;62840;52.366;5.980;2023-08-21T08:50:21;7.50;;;2.80;;
69573;SDS011;62840;52.366;5.980;2023-08-21T08:52:49;7.70;;;2.88;;
69573;SDS011;62840;52.366;5.980;2023-08-21T08:55:15;7.03;;;2.40;;
69573;SDS011;62840;52.366;5.980;2023-08-21T08:57:41;6.75;;;2.17;;
69573;SDS011;62840;52.366;5.980;2023-08-21T09:00:07;6.43;;;2.00;;
69573;SDS011;62840;52.366;5.980;2023-08-21T09:02:37;6.40;;;1.70;;
69573;SDS011;62840;52.366;5.980;2023-08-21T09:05:03;4.50;;;1.70;;
69573;SDS011;62840;52.366;5.980;2023-08-21T09:07:30;6.50;;;1.63;;
69573;SDS011;62840;52.366;5.980;2023-08-21T09:09:55;6.60;;;1.40;;
69573;SDS011;62840;52.366;5.980;2023-08-21T09:12:21;7.65;;;1.80;;
69573;SDS011;62840;52.366;5.980;2023-08-21T09:14:48;7.05;;;2.15;;
69573;SDS011;62840;52.366;5.980;2023-08-21T09:17:14;6.15;;;1.90;;
69573;SDS011;62840;52.366;5.980;2023-08-21T09:19:43;7.28;;;2.03;;
69573;SDS011;62840;52.366;5.980;2023-08-21T09:22:09;7.50;;;2.00;;
69573;SDS011;62840;52.366;5.980;2023-08-21T09:24:37;8.23;;;1.80;;
69573;SDS011;62840;52.366;5.980;2023-08-21T09:27:03;4.93;;;2.13;;
69573;SDS011;62840;52.366;5.980;2023-08-21T09:29:38;5.47;;;1.73;;
69573;SDS011;62840;52.366;5.980;2023-08-21T09:32:04;7.15;;;2.17;;
69573;SDS011;62840;52.366;5.980;2023-08-21T09:34:33;4.28;;;1.85;;
69573;SDS011;62840;52.366;5.980;2023-08-21T09:37:02;6.70;;;1.70;;
69573;SDS011;62840;52.366;5.980;2023-08-21T09:39:32;6.07;;;1.80;;
69573;SDS011;62840;52.366;5.980;2023-08-21T09:41:59;5.65;;;1.83;;
69573;SDS011;62840;52.366;5.980;2023-08-21T09:44:26;7.25;;;1.70;;
69573;SDS011;62840;52.366;5.980;2023-08-21T09:46:52;5.80;;;1.80;;
69573;SDS011;62840;52.366;5.980;2023-08-21T09:49:18;7.40;;;1.80;;
69573;SDS011;62840;52.366;5.980;2023-08-21T09:51:45;4.53;;;1.98;;
69573;SDS011;62840;52.366;5.980;2023-08-21T09:54:14;5.90;;;2.13;;
69573;SDS011;62840;52.366;5.980;2023-08-21T09:56:40;6.40;;;1.70;;
69573;SDS011;62840;52.366;5.980;2023-08-21T09:59:07;6.05;;;1.67;;
69573;SDS011;62840;52.366;5.980;2023-08-21T10:01:34;5.30;;;1.85;;
69573;SDS011;62840;52.366;5.980;2023-08-21T10:04:03;7.10;;;1.70;;
69573;SDS011;62840;52.366;5.980;2023-08-21T10:06:32;4.97;;;1.92;;
69573;SDS011;62840;52.366;5.980;2023-08-21T10:08:58;4.87;;;1.80;;
69573;SDS011;62840;52.366;5.980;2023-08-21T10:11:27;6.28;;;1.83;;
69573;SDS011;62840;52.366;5.980;2023-08-21T10:13:54;8.73;;;2.58;;
69573;SDS011;62840;52.366;5.980;2023-08-21T10:16:21;6.35;;;2.13;;
69573;SDS011;62840;52.366;5.980;2023-08-21T10:18:48;5.55;;;1.67;;
69573;SDS011;62840;52.366;5.980;2023-08-21T10:21:15;5.32;;;1.80;;
69573;SDS011;62840;52.366;5.980;2023-08-21T10:23:46;4.55;;;1.60;;
69573;SDS011;62840;52.366;5.980;2023-08-21T10:26:14;8.45;;;1.80;;
69573;SDS011;62840;52.366;5.980;2023-08-21T10:28:53;4.80;;;1.50;;
69573;SDS011;62840;52.366;5.980;2023-08-21T10:31:26;6.80;;;1.88;;
69573;SDS011;62840;52.366;5.980;2023-08-21T10:34:00;4.55;;;1.70;;
69573;SDS011;62840;52.366;5.980;2023-08-21T10:36:37;6.22;;;1.77;;
69573;SDS011;62840;52.366;5.980;2023-08-21T10:39:29;8.93;;;1.95;;
69573;SDS011;62840;52.366;5.980;2023-08-21T10:41:54;5.93;;;1.70;;
69573;SDS011;62840;52.366;5.980;2023-08-21T10:44:45;5.53;;;2.10;;
69573;SDS011;62840;52.366;5.980;2023-08-21T10:47:15;6.43;;;1.80;;
69573;SDS011;62840;52.366;5.980;2023-08-21T10:49:43;4.80;;;1.80;;
69573;SDS011;62840;52.366;5.980;2023-08-21T10:52:10;4.82;;;2.05;;
69573;SDS011;62840;52.366;5.980;2023-08-21T10:54:43;5.07;;;1.30;;
69573;SDS011;62840;52.366;5.980;2023-08-21T10:57:11;6.28;;;1.80;;
69573;SDS011;62840;52.366;5.980;2023-08-21T10:59:39;6.53;;;1.98;;
69573;SDS011;62840;52.366;5.980;2023-08-21T11:02:18;5.95;;;2.03;;
69573;SDS011;62840;52.366;5.980;2023-08-21T11:04:44;6.47;;;1.85;;
69573;SDS011;62840;52.366;5.980;2023-08-21T11:07:10;7.90;;;1.70;;
69573;SDS011;62840;52.366;5.980;2023-08-21T11:09:36;5.60;;;1.97;;
69573;SDS011;62840;52.366;5.980;2023-08-21T11:12:04;6.63;;;1.90;;
69573;SDS011;62840;52.366;5.980;2023-08-21T11:14:33;3.78;;;1.77;;
69573;SDS011;62840;52.366;5.980;2023-08-21T11:17:01;4.50;;;1.65;;
69573;SDS011;62840;52.366;5.980;2023-08-21T11:19:29;5.90;;;1.43;;
69573;SDS011;62840;52.366;5.980;2023-08-21T11:21:55;4.10;;;1.50;;
69573;SDS011;62840;52.366;5.980;2023-08-21T11:24:21;5.22;;;1.38;;
69573;SDS011;62840;52.366;5.980;2023-08-21T11:26:47;5.13;;;1.60;;
69573;SDS011;62840;52.366;5.980;2023-08-21T11:29:13;5.15;;;1.60;;
69573;SDS011;62840;52.366;5.980;2023-08-21T11:31:39;4.30;;;1.20;;
69573;SDS011;62840;52.366;5.980;2023-08-21T11:34:07;4.30;;;1.27;;
69573;SDS011;62840;52.366;5.980;2023-08-21T11:36:33;3.55;;;1.60;;
69573;SDS011;62840;52.366;5.980;2023-08-21T11:38:59;5.50;;;1.57;;
69573;SDS011;62840;52.366;5.980;2023-08-21T11:41:27;6.07;;;2.00;;
69573;SDS011;62840;52.366;5.980;2023-08-21T11:43:52;5.47;;;1.70;;
69573;SDS011;62840;52.366;5.980;2023-08-21T11:46:26;3.92;;;1.38;;
69573;SDS011;62840;52.366;5.980;2023-08-21T11:48:52;5.83;;;1.60;;
69573;SDS011;62840;52.366;5.980;2023-08-21T11:51:20;5.47;;;1.80;;
69573;SDS011;62840;52.366;5.980;2023-08-21T11:53:47;5.20;;;1.63;;
69573;SDS011;62840;52.366;5.980;2023-08-21T11:56:13;7.18;;;1.73;;
69573;SDS011;62840;52.366;5.980;2023-08-21T11:58:41;6.20;;;2.30;;
69573;SDS011;62840;52.366;5.980;2023-08-21T12:01:09;5.18;;;2.33;;
69573;SDS011;62840;52.366;5.980;2023-08-21T12:03:35;4.82;;;1.88;;
69573;SDS011;62840;52.366;5.980;2023-08-21T12:06:03;4.70;;;2.05;;
69573;SDS011;62840;52.366;5.980;2023-08-21T12:08:33;7.03;;;1.88;;
69573;SDS011;62840;52.366;5.980;2023-08-21T12:11:00;5.30;;;1.80;;
69573;SDS011;62840;52.366;5.980;2023-08-21T12:13:26;3.95;;;2.03;;
69573;SDS011;62840;52.366;5.980;2023-08-21T12:15:52;6.27;;;1.63;;
69573;SDS011;62840;52.366;5.980;2023-08-21T12:18:18;4.60;;;1.83;;
69573;SDS011;62840;52.366;5.980;2023-08-21T12:20:43;4.60;;;1.80;;
69573;SDS011;62840;52.366;5.980;2023-08-21T12:23:09;5.70;;;1.90;;
69573;SDS011;62840;52.366;5.980;2023-08-21T12:25:37;4.83;;;1.83;;
69573;SDS011;62840;52.366;5.980;2023-08-21T12:28:03;5.93;;;1.90;;
69573;SDS011;62840;52.366;5.980;2023-08-21T12:30:31;4.93;;;2.03;;
69573;SDS011;62840;52.366;5.980;2023-08-21T12:32:56;5.90;;;1.90;;
69573;SDS011;62840;52.366;5.980;2023-08-21T12:35:22;4.68;;;1.90;;
69573;SDS011;62840;52.366;5.980;2023-08-21T12:37:48;5.00;;;2.20;;
69573;SDS011;62840;52.366;5.980;2023-08-21T12:40:14;3.75;;;1.92;;
69573;SDS011;62840;52.366;5.980;2023-08-21T12:42:42;6.20;;;2.10;;
69573;SDS011;62840;52.366;5.980;2023-08-21T12:45:08;4.55;;;1.70;;
69573;SDS011;62840;52.366;5.980;2023-08-21T12:47:35;6.32;;;1.88;;
69573;SDS011;62840;52.366;5.980;2023-08-21T12:50:00;4.95;;;1.88;;
69573;SDS011;62840;52.366;5.980;2023-08-21T12:52:26;4.13;;;1.83;;
69573;SDS011;62840;52.366;5.980;2023-08-21T12:54:52;4.07;;;1.73;;
69573;SDS011;62840;52.366;5.980;2023-08-21T12:57:18;4.77;;;1.50;;
69573;SDS011;62840;52.366;5.980;2023-08-21T12:59:46;5.22;;;1.77;;
69573;SDS011;62840;52.366;5.980;2023-08-21T13:02:12;5.25;;;1.80;;
69573;SDS011;62840;52.366;5.980;2023-08-21T13:04:37;5.05;;;1.73;;
69573;SDS011;62840;52.366;5.980;2023-08-21T13:07:04;5.10;;;1.50;;
69573;SDS011;62840;52.366;5.980;2023-08-21T13:09:30;4.25;;;1.50;;
69573;SDS011;62840;52.366;5.980;2023-08-21T13:11:56;4.70;;;1.75;;
69573;SDS011;62840;52.366;5.980;2023-08-21T13:14:21;7.00;;;1.53;;
69573;SDS011;62840;52.366;5.980;2023-08-21T13:16:50;4.80;;;1.50;;
69573;SDS011;62840;52.366;5.980;2023-08-21T13:19:15;4.47;;;1.40;;
69573;SDS011;62840;52.366;5.980;2023-08-21T13:21:41;3.67;;;1.60;;
69573;SDS011;62840;52.366;5.980;2023-08-21T13:24:07;4.10;;;1.60;;
69573;SDS011;62840;52.366;5.980;2023-08-21T13:26:33;3.93;;;1.40;;
69573;SDS011;62840;52.366;5.980;2023-08-21T13:28:58;5.20;;;1.65;;
69573;SDS011;62840;52.366;5.980;2023-08-21T13:31:24;3.87;;;1.50;;
69573;SDS011;62840;52.366;5.980;2023-08-21T13:33:53;4.97;;;1.48;;
69573;SDS011;62840;52.366;5.980;2023-08-21T13:36:18;5.05;;;1.70;;
69573;SDS011;62840;52.366;5.980;2023-08-21T13:38:44;3.00;;;1.10;;
69573;SDS011;62840;52.366;5.980;2023-08-21T13:41:10;4.63;;;1.00;;
69573;SDS011;62840;52.366;5.980;2023-08-21T13:43:36;4.10;;;1.53;;
69573;SDS011;62840;52.366;5.980;2023-08-21T13:46:01;4.55;;;1.50;;
69573;SDS011;62840;52.366;5.980;2023-08-21T13:48:27;4.78;;;1.30;;
69573;SDS011;62840;52.366;5.980;2023-08-21T13:50:56;5.40;;;1.20;;
69573;SDS011;62840;52.366;5.980;2023-08-21T13:53:22;3.88;;;1.20;;
69573;SDS011;62840;52.366;5.980;2023-08-21T13:55:48;4.78;;;1.58;;
69573;SDS011;62840;52.366;5.980;2023-08-21T13:58:14;3.90;;;1.65;;
69573;SDS011;62840;52.366;5.980;2023-08-21T14:00:40;3.30;;;1.20;;
69573;SDS011;62840;52.366;5.980;2023-08-21T14:03:06;4.53;;;1.40;;
69573;SDS011;62840;52.366;5.980;2023-08-21T14:05:31;4.72;;;1.20;;
69573;SDS011;62840;52.366;5.980;2023-08-21T14:08:00;3.15;;;1.30;;
69573;SDS011;62840;52.366;5.980;2023-08-21T14:10:26;7.43;;;1.20;;
69573;SDS011;62840;52.366;5.980;2023-08-21T14:12:52;3.22;;;1.20;;
69573;SDS011;62840;52.366;5.980;2023-08-21T14:15:18;4.55;;;1.60;;
69573;SDS011;62840;52.366;5.980;2023-08-21T14:17:43;4.93;;;1.58;;
69573;SDS011;62840;52.366;5.980;2023-08-21T14:20:10;5.05;;;1.30;;
69573;SDS011;62840;52.366;5.980;2023-08-21T14:22:36;3.67;;;1.20;;
69573;SDS011;62840;52.366;5.980;2023-08-21T14:25:05;6.17;;;1.83;;
69573;SDS011;62840;52.366;5.980;2023-08-21T14:27:31;4.07;;;1.27;;
69573;SDS011;62840;52.366;5.980;2023-08-21T14:29:57;5.32;;;1.20;;
69573;SDS011;62840;52.366;5.980;2023-08-21T14:32:24;5.07;;;1.20;;
69573;SDS011;62840;52.366;5.980;2023-08-21T14:34:50;4.82;;;1.40;;
69573;SDS011;62840;52.366;5.980;2023-08-21T14:37:16;3.83;;;1.30;;
69573;SDS011;62840;52.366;5.980;2023-08-21T14:39:41;4.70;;;1.23;;
69573;SDS011;62840;52.366;5.980;2023-08-21T14:42:10;5.80;;;1.40;;
69573;SDS011;62840;52.366;5.980;2023-08-21T14:44:36;5.05;;;1.25;;
69573;SDS011;62840;52.366;5.980;2023-08-21T14:47:02;3.67;;;1.42;;